Ed's Weather Station

Ed's Weather Station
Located south of Fulton, MO
Lat. 38.75234 N
Lon. 91.96758 W
Elevation 787 ft

GR3 Radar

Current 24 Hours Yesterday Last 48 Hours Last 72 Hours Last 30 Days Yearly Rainfall Yearly Temp Trends Monthly Wind Direction Last 30 Days Temperature Solar Data
Highs and Lows Trends Sun & Moon Rise\Set Times Moon\Solar Info
Local Weather Advisories Area Forecast Discussion Hazardous Weather Outlook U.S. Severe Weather Storm Prediction Center
All Time Records Monthly Records Yearly Records
Weather Gauges MW Weather Network
Local Area Conditions Printable Weather Flyer MO River Information
About Ed's Weather Weather Station Status Weather Graphic Personal Weather Sites
Kansas City NEXRAD Radar Local/Regional Radar Satellite Images
Weather Underground Data Rain Detail Chart
NWS Forecast Details Ed's Forecast Details UV Forecast Pollen Forecast Space Weather
Member of the following organizations:





Local Links:
Callaway County Sheriff

Eds Weather Station - WU Station History
Station Historical Data
Daily Summary for February 14, 2018 Units:  Metric    English   Both
« Previous Day
Next Day »
Daily Weekly Monthly Yearly Custom
  High: Low: Average:
Temperature: -17.8 °C 3.3 °C 9.8 °C
Dew Point: -17.8 °C 0.3 °C 7.4 °C
Humidity: Humidity% 68% 86%
Wind Speed: 0km/h 0km/h 4.8km/h
Wind Gust: 0km/h - -
Wind- - South
Pressure: 0 hPa 1011.4 hPa -
Precipitation: 0 mm    
Historical Graphs
 
 
Tabular Data for February 14, 2018
Time Temperature Dew Point Pressure Wind Wind Speed Wind Gust Humidity Rainfall Rate (Hourly) solar Conditions
-17.8 °C -17.8 °C 0 hPa Calm     Humidity% 0 mm SolarRadiationWatts/m^2 W/m2 Conditions
00:02 3.8 °C 0.3 °C 1024.9 hPa SSE 3.7 km/h 3.7 km/h 78% 0 mm 0.0 W/m2 RA
00:07 3.8 °C 0.5 °C 1024.9 hPa SSE 3.2 km/h 3.2 km/h 79% 0 mm 0.0 W/m2 RA
00:12 3.8 °C 0.4 °C 1024.9 hPa SSE 3.7 km/h 3.7 km/h 79% 0 mm 0.0 W/m2 OVC
00:17 3.8 °C 0.5 °C 1024.9 hPa SSE 3.7 km/h 3.7 km/h 79% 0 mm 0.0 W/m2 OVC
00:22 3.9 °C 0.4 °C 1024.9 hPa South 5.6 km/h 5.6 km/h 78% 0 mm 0.0 W/m2 OVC
00:27 3.9 °C 0.8 °C 1024.9 hPa South 5.6 km/h 5.6 km/h 80% 0 mm 0.0 W/m2 OVC
00:32 3.8 °C 1.1 °C 1024.9 hPa South 1.9 km/h 1.9 km/h 82% 0 mm 0.0 W/m2 OVC
00:37 3.8 °C 1.3 °C 1024.9 hPa South 3.7 km/h 3.7 km/h 84% 0 mm 0.0 W/m2 OVC
00:42 3.7 °C 1.6 °C 1024.9 hPa South 3.7 km/h 3.7 km/h 86% 0 mm 0.0 W/m2 OVC
00:47 3.6 °C 1.7 °C 1024.9 hPa Calm     87% 0 mm 0.0 W/m2 OVC
00:52 3.5 °C 1.8 °C 1024.9 hPa South 1.9 km/h 1.9 km/h 89% 0 mm 0.0 W/m2 OVC
00:57 3.5 °C 1.8 °C 1024.9 hPa South 3.7 km/h 3.7 km/h 89% 0 mm 0.0 W/m2 OVC
01:02 3.4 °C 1.8 °C 1024.9 hPa South 3.7 km/h 3.7 km/h 89% 0 mm 0.0 W/m2 OVC
01:07 3.4 °C 1.9 °C 1024.6 hPa South 1.9 km/h 1.9 km/h 90% 0 mm 0.0 W/m2 OVC
01:12 3.4 °C 1.9 °C 1024.6 hPa South 1.9 km/h   90% 0 mm 0.0 W/m2 OVC
01:17 3.4 °C 1.9 °C 1024.6 hPa South 3.7 km/h 3.7 km/h 90% 0 mm 0.0 W/m2 OVC
01:22 3.4 °C 1.9 °C 1024.6 hPa South 3.7 km/h 3.7 km/h 90% 0 mm 0.0 W/m2 OVC
01:27 3.4 °C 1.9 °C 1024.6 hPa South 3.7 km/h 3.7 km/h 90% 0 mm 0.0 W/m2 OVC
01:32 3.3 °C 1.8 °C 1024.6 hPa South 1.9 km/h 1.9 km/h 90% 0 mm 0.0 W/m2 OVC
01:37 3.3 °C 1.8 °C 1024.3 hPa South 5.6 km/h 5.6 km/h 90% 0 mm 0.0 W/m2 OVC
01:42 3.4 °C 2.1 °C 1024.3 hPa South 5.6 km/h 5.6 km/h 91% 0 mm 0.0 W/m2 OVC
01:47 3.4 °C 2.1 °C 1024.3 hPa South 3.7 km/h 3.7 km/h 91% 0 mm 0.0 W/m2 OVC
01:52 3.4 °C 2.2 °C 1023.9 hPa South 1.9 km/h 1.9 km/h 92% 0 mm 0.0 W/m2 OVC
01:57 3.4 °C 2.3 °C 1023.9 hPa South 1.6 km/h 1.6 km/h 92% 0 mm 0.0 W/m2 OVC
02:02 3.5 °C 2.3 °C 1023.9 hPa South 1.9 km/h 1.9 km/h 92% 0 mm 0.0 W/m2 OVC
02:07 3.6 °C 2.4 °C 1023.9 hPa South 1.9 km/h 1.9 km/h 92% 0 mm 0.0 W/m2 OVC
02:12 3.6 °C 2.4 °C 1023.9 hPa South 3.7 km/h 3.7 km/h 92% 0 mm 0.0 W/m2 OVC
02:17 3.6 °C 2.4 °C 1023.9 hPa South 1.9 km/h 1.9 km/h 92% 0 mm 0.0 W/m2 OVC
02:22 3.6 °C 2.4 °C 1023.6 hPa South 3.7 km/h 3.7 km/h 92% 0 mm 0.0 W/m2 OVC
02:27 3.6 °C 2.4 °C 1023.6 hPa SSE 3.7 km/h 3.7 km/h 92% 0 mm 0.0 W/m2 OVC
02:32 3.6 °C 2.6 °C 1023.6 hPa SSE 1.9 km/h 1.9 km/h 93% 0 mm 0.0 W/m2 OVC
02:37 3.6 °C 2.6 °C 1023.6 hPa Calm     93% 0 mm 0.0 W/m2 OVC
02:42 3.6 °C 2.4 °C 1023.6 hPa Calm     92% 0 mm 0.0 W/m2 OVC
02:47 3.5 °C 2.3 °C 1023.6 hPa SSE 1.9 km/h   92% 0 mm 0.0 W/m2 OVC
02:52 3.6 °C 2.6 °C 1023.6 hPa SSE 1.9 km/h 1.9 km/h 93% 0 mm 0.0 W/m2 OVC
02:57 3.6 °C 2.6 °C 1023.2 hPa SSE 3.7 km/h 3.7 km/h 93% 0 mm 0.0 W/m2 OVC
03:02 3.7 °C 2.8 °C 1023.2 hPa Calm     94% 0 mm 0.0 W/m2 OVC
03:07 3.7 °C 2.8 °C 1022.9 hPa Calm     94% 0 mm 0.0 W/m2 OVC
03:12 3.6 °C 2.7 °C 1023.2 hPa Calm     94% 0 mm 0.0 W/m2 OVC
03:17 3.7 °C 2.8 °C 1022.9 hPa South 5.6 km/h 5.6 km/h 94% 0 mm 0.0 W/m2 OVC
03:22 3.8 °C 2.9 °C 1022.9 hPa South 1.6 km/h 1.6 km/h 94% 0 mm 0.0 W/m2 OVC
03:27 3.9 °C 3.2 °C 1022.9 hPa South 3.7 km/h 3.7 km/h 95% 0 mm 0.0 W/m2 OVC
03:32 4 °C 3.3 °C 1022.9 hPa South 1.9 km/h   95% 0 mm 0.0 W/m2 OVC
03:33 4 °C 3.3 °C 1022.9 hPa Calm     95% 0 mm 0.0 W/m2 OVC
03:38 4.1 °C 3.3 °C 1022.9 hPa Calm     95% 0 mm 0.0 W/m2 OVC
03:43 4.1 °C 3.4 °C 1022.9 hPa SSE 1.9 km/h 1.9 km/h 95% 0 mm 0.0 W/m2 OVC
03:48 4.1 °C 3.4 °C 1022.9 hPa South 3.7 km/h 3.7 km/h 95% 0 mm 0.0 W/m2 OVC
03:53 4.1 °C 3.4 °C 1022.9 hPa Calm     95% 0 mm 0.0 W/m2 OVC
03:58 4.1 °C 3.4 °C 1022.6 hPa Calm     95% 0 mm 0.0 W/m2 OVC
04:03 4.1 °C 3.3 °C 1022.6 hPa Calm     95% 0 mm 0.0 W/m2 -RA
04:08 4 °C 3.3 °C 1022.6 hPa Calm     95% 0 mm 0.0 W/m2 -RA
04:13 3.9 °C 3.2 °C 1022.2 hPa Calm     95% 0 mm 0.0 W/m2 -RA
04:18 3.9 °C 3.2 °C 1022.2 hPa South 1.9 km/h   95% 0 mm 0.0 W/m2 -RA
04:23 3.9 °C 3.2 °C 1022.2 hPa Calm     95% 0 mm 0.0 W/m2 -RA
04:28 3.9 °C 3.2 °C 1022.2 hPa Calm     95% 0 mm 0.0 W/m2 -RA
04:33 3.9 °C 3.2 °C 1022.2 hPa Calm     95% 0 mm 0.0 W/m2 -RA
04:38 3.9 °C 3.2 °C 1022.2 hPa Calm     95% 0 mm 0.0 W/m2 -RA
04:43 4 °C 3.3 °C 1022.2 hPa Calm     95% 0 mm 0.0 W/m2 -RA
04:48 4.1 °C 3.4 °C 1022.2 hPa Calm     95% 0 mm 0.0 W/m2 -RA
04:53 4.2 °C 3.6 °C 1022.2 hPa Calm     96% 0 mm 0.0 W/m2 -RA
04:58 4.3 °C 3.7 °C 1022.2 hPa South 1.9 km/h   96% 0 mm 0.0 W/m2 -RA
05:03 4.3 °C 3.8 °C 1021.9 hPa South 3.2 km/h 3.2 km/h 96% 0 mm 0.0 W/m2 OVC
05:08 4.4 °C 3.8 °C 1021.9 hPa Calm     96% 0 mm 0.0 W/m2 OVC
05:13 4.5 °C 3.9 °C 1022.2 hPa SSW 3.7 km/h 3.7 km/h 96% 0 mm 0.0 W/m2 OVC
05:18 4.6 °C 4 °C 1022.2 hPa SSW 3.7 km/h   96% 0 mm 0.0 W/m2 OVC
05:23 4.7 °C 4.1 °C 1022.2 hPa South 3.2 km/h 3.2 km/h 96% 0 mm 0.0 W/m2 OVC
05:28 4.7 °C 4.1 °C 1022.2 hPa South 3.7 km/h 3.7 km/h 96% 0 mm 0.0 W/m2 OVC
05:33 4.7 °C 4.1 °C 1021.9 hPa South 1.9 km/h 1.9 km/h 96% 0 mm 0.0 W/m2 OVC
05:38 4.7 °C 4.1 °C 1021.9 hPa South 3.7 km/h 3.7 km/h 96% 0 mm 0.0 W/m2 OVC
05:43 4.6 °C 4.1 °C 1021.9 hPa Calm     96% 0 mm 0.0 W/m2 OVC
05:48 4.6 °C 4.1 °C 1021.6 hPa Calm     96% 0 mm 0.0 W/m2 OVC
05:53 4.7 °C 4.1 °C 1021.6 hPa South 1.9 km/h 1.9 km/h 96% 0 mm 0.0 W/m2 OVC
05:58 4.7 °C 4.1 °C 1021.6 hPa SE 1.9 km/h 1.9 km/h 96% 0 mm 0.0 W/m2 OVC
06:03 4.6 °C 4.1 °C 1021.6 hPa SSE 3.7 km/h 3.7 km/h 96% 0 mm 0.0 W/m2 -RA
06:09 4.7 °C 4.1 °C 1021.6 hPa SE 3.7 km/h 3.7 km/h 96% 0 mm 0.0 W/m2 -RA
06:13 4.7 °C 4.1 °C 1021.6 hPa SE 3.7 km/h 3.7 km/h 96% 0 mm 0.0 W/m2 -RA
06:19 4.7 °C 4.1 °C 1021.6 hPa SE 1.9 km/h 1.9 km/h 96% 0 mm 0.0 W/m2 -RA
06:24 4.7 °C 4.1 °C 1021.2 hPa SE 3.2 km/h 3.2 km/h 96% 0 mm 0.0 W/m2 -RA
06:29 4.7 °C 4.1 °C 1021.2 hPa SE 1.9 km/h 1.9 km/h 96% 0 mm 0.0 W/m2 -RA
06:34 4.7 °C 4.1 °C 1021.2 hPa SE 1.9 km/h 1.9 km/h 96% 0 mm 0.0 W/m2 -RA
06:39 4.8 °C 4.2 °C 1021.2 hPa SSE 3.7 km/h 3.7 km/h 96% 0 mm 0.0 W/m2 -RA
06:44 4.9 °C 4.3 °C 1021.2 hPa South 5.6 km/h 5.6 km/h 96% 0 mm 0.0 W/m2 -RA
06:49 4.9 °C 4.3 °C 1021.2 hPa South 3.2 km/h 3.2 km/h 96% 0 mm 0.0 W/m2 -RA
06:54 4.9 °C 4.3 °C 1021.2 hPa SSW 5.6 km/h 5.6 km/h 96% 0 mm 0.0 W/m2 -RA
06:59 4.9 °C 4.3 °C 1020.9 hPa South 1.9 km/h   96% 0 mm 0.0 W/m2 -RA
07:04 5 °C 4.4 °C 1020.9 hPa Calm     96% 0 mm 0.0 W/m2 OVC
07:09 5.1 °C 4.4 °C 1021.2 hPa Calm     96% 0 mm 0.0 W/m2 OVC
07:14 5.1 °C 4.4 °C 1021.2 hPa Calm     96% 0 mm 0.0 W/m2 OVC
07:19 5.1 °C 4.6 °C 1020.9 hPa Calm     97% 0 mm 0.0 W/m2 OVC
07:24 5.2 °C 4.7 °C 1020.9 hPa SSE 5.6 km/h 5.6 km/h 97% 0 mm 5.0 W/m2 OVC
07:29 5.3 °C 4.7 °C 1020.9 hPa South 7.4 km/h 7.4 km/h 96% 0 mm 7.0 W/m2 OVC
07:34 5.4 °C 4.9 °C 1020.9 hPa South 3.7 km/h 3.7 km/h 97% 0 mm 7.0 W/m2 OVC
07:39 5.4 °C 5 °C 1020.9 hPa South 1.9 km/h   97% 0 mm 11.0 W/m2 OVC
07:44 5.5 °C 5.1 °C 1020.9 hPa SSW 6.4 km/h 6.4 km/h 97% 0 mm 9.0 W/m2 OVC
07:49 5.6 °C 5.2 °C 1020.9 hPa South 7.4 km/h 7.4 km/h 97% 0 mm 9.0 W/m2 OVC
07:54 5.6 °C 5.2 °C 1020.9 hPa South 5.6 km/h 5.6 km/h 97% 0 mm 7.0 W/m2 OVC
07:59 5.7 °C 5.2 °C 1020.9 hPa South 9.3 km/h 9.3 km/h 97% 0 mm 12.0 W/m2 OVC
08:04 5.7 °C 5.2 °C 1020.9 hPa South 5.6 km/h 5.6 km/h 97% 0 mm 11.0 W/m2 OVC
08:09 5.7 °C 5.2 °C 1020.9 hPa South 5.6 km/h 5.6 km/h 97% 0 mm 12.0 W/m2 OVC
08:14 5.7 °C 5.3 °C 1021.2 hPa SSE 6.4 km/h 6.4 km/h 97% 0 mm 11.0 W/m2 OVC
08:19 5.7 °C 5.3 °C 1021.2 hPa SSE 6.4 km/h 6.4 km/h 97% 0 mm 14.0 W/m2 OVC
08:24 5.8 °C 5.3 °C 1020.9 hPa South 9.3 km/h 9.3 km/h 97% 0 mm 16.0 W/m2 OVC
08:29 5.8 °C 5.4 °C 1020.9 hPa SSE 5.6 km/h 5.6 km/h 97% 0 mm 25.0 W/m2 OVC
08:34 6 °C 5.6 °C 1020.9 hPa South 3.7 km/h 3.7 km/h 97% 0 mm 25.0 W/m2 OVC
08:39 6.1 °C 5.6 °C 1020.9 hPa South 5.6 km/h 5.6 km/h 97% 0 mm 32.0 W/m2 OVC
08:44 6.2 °C 5.7 °C 1020.5 hPa South 5.6 km/h 5.6 km/h 97% 0 mm 25.0 W/m2 OVC
08:49 6.3 °C 5.8 °C 1020.9 hPa SSW 5.6 km/h 5.6 km/h 97% 0 mm 23.0 W/m2 OVC
08:54 6.3 °C 5.8 °C 1020.5 hPa South 7.4 km/h 7.4 km/h 97% 0 mm 32.0 W/m2 OVC
08:59 6.3 °C 5.9 °C 1020.5 hPa South 9.3 km/h 9.3 km/h 97% 0 mm 53.0 W/m2 OVC
09:04 6.5 °C 6.1 °C 1020.2 hPa South 4.8 km/h 4.8 km/h 97% 0 mm 65.0 W/m2 OVC
09:09 6.6 °C 6.2 °C 1020.5 hPa South 3.7 km/h 3.7 km/h 97% 0 mm 42.0 W/m2 OVC
09:14 6.8 °C 6.3 °C 1020.5 hPa SSW 7.4 km/h 7.4 km/h 97% 0 mm 56.0 W/m2 OVC
09:19 6.9 °C 6.4 °C 1020.2 hPa South 5.6 km/h 5.6 km/h 97% 0 mm 125.0 W/m2 OVC
09:24 7.1 °C 6.7 °C 1020.2 hPa South 5.6 km/h 5.6 km/h 97% 0 mm 91.0 W/m2 OVC
09:29 7.4 °C 6.9 °C 1020.2 hPa South 9.3 km/h 9.3 km/h 97% 0 mm 109.0 W/m2 OVC
09:34 7.7 °C 7.2 °C 1019.9 hPa SSW 3.7 km/h 3.7 km/h 97% 0 mm 93.0 W/m2 OVC
09:39 7.8 °C 7.3 °C 1019.9 hPa South 8 km/h 8 km/h 97% 0 mm 97.0 W/m2 OVC
09:44 7.8 °C 7.4 °C 1019.9 hPa South 8 km/h 8 km/h 97% 0 mm 151.0 W/m2 OVC
09:49 8.1 °C 7.7 °C 1019.5 hPa SSW 9.3 km/h 9.3 km/h 97% 0 mm 100.0 W/m2 OVC
09:54 8.2 °C 7.8 °C 1019.5 hPa SSW 9.3 km/h 9.3 km/h 97% 0 mm 118.0 W/m2 OVC
09:59 8.4 °C 8 °C 1019.5 hPa SW 5.6 km/h 5.6 km/h 97% 0 mm 91.0 W/m2 OVC
10:04 8.6 °C 8.1 °C 1019.5 hPa SSW 5.6 km/h 5.6 km/h 97% 0 mm 77.0 W/m2 OVC
10:09 8.7 °C 8.2 °C 1019.5 hPa South 7.4 km/h 7.4 km/h 97% 0 mm 86.0 W/m2 OVC
10:14 8.8 °C 8.3 °C 1019.5 hPa SSW 7.4 km/h 7.4 km/h 97% 0 mm 63.0 W/m2 OVC
10:19 9 °C 8.4 °C 1019.5 hPa SW 7.4 km/h 7.4 km/h 96% 0 mm 86.0 W/m2 OVC
10:24 9.2 °C 8.4 °C 1019.2 hPa SSW 7.4 km/h 7.4 km/h 95% 0 mm 86.0 W/m2 OVC
10:29 9.3 °C 8.3 °C 1019.2 hPa South 9.3 km/h 9.3 km/h 93% 0 mm 84.0 W/m2 OVC
10:34 9.5 °C 8.3 °C 1019.2 hPa SW 5.6 km/h 5.6 km/h 92% 0 mm 98.0 W/m2 OVC
10:39 9.7 °C 8.3 °C 1019.2 hPa SW 9.3 km/h 9.3 km/h 91% 0 mm 100.0 W/m2 OVC
10:44 9.8 °C 8.3 °C 1019.2 hPa SW 7.4 km/h 7.4 km/h 90% 0 mm 163.0 W/m2 OVC
10:49 10.2 °C 8.6 °C 1019.2 hPa SSW 7.4 km/h 7.4 km/h 90% 0 mm 144.0 W/m2 OVC
10:54 10.4 °C 8.7 °C 1018.8 hPa SW 5.6 km/h 5.6 km/h 89% 0 mm 105.0 W/m2 OVC
10:59 10.7 °C 8.8 °C 1018.8 hPa SW 9.3 km/h 9.3 km/h 88% 0 mm 176.0 W/m2 OVC
11:04 10.9 °C 8.8 °C 1018.8 hPa SW 7.4 km/h 7.4 km/h 87% 0 mm 299.0 W/m2 OVC
11:09 11.3 °C 9.2 °C 1018.5 hPa SW 5.6 km/h 5.6 km/h 87% 0 mm 464.0 W/m2 OVC
11:14 11.9 °C 9.5 °C 1018.5 hPa SW 7.4 km/h 7.4 km/h 85% 0 mm 258.0 W/m2 OVC
11:19 12.4 °C 9.6 °C 1018.5 hPa SSW 7.4 km/h 7.4 km/h 83% 0 mm 255.0 W/m2 OVC
11:24 12.8 °C 9.4 °C 1018.5 hPa SW 6.4 km/h 6.4 km/h 80% 0 mm 257.0 W/m2 OVC
11:29 13.2 °C 9.8 °C 1018.5 hPa SW 7.4 km/h 7.4 km/h 80% 0 mm 432.0 W/m2 OVC
11:34 13.6 °C 9.7 °C 1018.2 hPa South 8 km/h 8 km/h 77% 0 mm 541.0 W/m2 OVC
11:39 13.9 °C 9.9 °C 1017.8 hPa SW 7.4 km/h 7.4 km/h 77% 0 mm 487.0 W/m2 OVC
11:44 14.2 °C 9.7 °C 1017.8 hPa SW 11.1 km/h 11.1 km/h 74% 0 mm 489.0 W/m2 OVC
11:49 14.6 °C 9.8 °C 1017.5 hPa South 5.6 km/h 5.6 km/h 73% 0 mm 332.0 W/m2 OVC
11:54 14.4 °C 9.7 °C 1017.5 hPa SW 7.4 km/h 7.4 km/h 73% 0 mm 415.0 W/m2 OVC
11:59 14.4 °C 9.7 °C 1017.2 hPa SW 13 km/h 13 km/h 73% 0 mm 403.0 W/m2 OVC
12:04 14.6 °C 9.6 °C 1017.2 hPa South 7.4 km/h 7.4 km/h 72% 0 mm 362.0 W/m2 OVC
12:09 14.7 °C 9.7 °C 1017.2 hPa SSW 18.5 km/h 18.5 km/h 72% 0 mm 418.0 W/m2 OVC
12:14 14.4 °C 9.7 °C 1016.8 hPa SSE 11.1 km/h 11.1 km/h 73% 0 mm 236.0 W/m2 OVC
12:19 14.5 °C 9.9 °C 1016.5 hPa SW 7.4 km/h 7.4 km/h 74% 0 mm 404.0 W/m2 OVC
12:24 14.7 °C 9.9 °C 1016.5 hPa South 7.4 km/h 7.4 km/h 73% 0 mm 287.0 W/m2 OVC
12:29 14.7 °C 9.9 °C 1016.1 hPa SSW 11.1 km/h 11.1 km/h 73% 0 mm 353.0 W/m2 OVC
12:34 14.9 °C 10.2 °C 1016.1 hPa SSW 5.6 km/h 5.8 km/h 73% 0 mm 355.0 W/m2 OVC
12:39 15.3 °C 10.1 °C 1016.1 hPa SSW 9.3 km/h 9.3 km/h 71% 0 mm 436.0 W/m2 OVC
12:44 15.2 °C 10 °C 1015.8 hPa South 7.4 km/h 7.4 km/h 71% 0 mm 253.0 W/m2 OVC
12:49 15.3 °C 10.1 °C 1015.8 hPa SSW 13 km/h 13 km/h 71% 0 mm 232.0 W/m2 OVC
12:54 14.7 °C 9.7 °C 1015.8 hPa SSW 22.2 km/h 22.2 km/h 72% 0 mm 278.0 W/m2 OVC
12:59 14.9 °C 10.1 °C 1015.8 hPa SSW 18.5 km/h 18.5 km/h 73% 0 mm 550.0 W/m2 OVC
13:04 15.3 °C 10.3 °C 1015.5 hPa South 14.8 km/h 14.8 km/h 72% 0 mm 383.0 W/m2 OVC
13:09 15.7 °C 10.4 °C 1015.5 hPa SW 9.3 km/h 9.3 km/h 71% 0 mm 332.0 W/m2 OVC
13:14 16.1 °C 10.4 °C 1015.1 hPa South 16.7 km/h 16.7 km/h 69% 0 mm 436.0 W/m2 OVC
13:19 16.2 °C 10.4 °C 1014.8 hPa SSW 9.3 km/h 9.3 km/h 69% 0 mm 424.0 W/m2 OVC
13:24 16.2 °C 10.4 °C 1015.1 hPa South 18.5 km/h 18.5 km/h 69% 0 mm 459.0 W/m2 OVC
13:29 16.1 °C 10.6 °C 1014.8 hPa SSW 9.3 km/h 9.3 km/h 70% 0 mm 436.0 W/m2 OVC
13:34 16.3 °C 10.6 °C 1015.1 hPa South 11.1 km/h 11.1 km/h 69% 0 mm 410.0 W/m2 OVC
13:44 16.3 °C 10.6 °C 1014.4 hPa South 11.3 km/h 11.3 km/h 69% 0 mm 492.0 W/m2 OVC
13:49 16.4 °C 10.7 °C 1014.4 hPa South 18.5 km/h 18.5 km/h 69% 0 mm 410.0 W/m2 OVC
13:54 16.4 °C 10.7 °C 1013.8 hPa SSW 14.8 km/h 14.8 km/h 69% 0 mm 301.0 W/m2 OVC
13:59 16.7 °C 10.7 °C 1014.1 hPa SSW 18.5 km/h 18.5 km/h 68% 0 mm 128.0 W/m2 OVC
14:04 16.3 °C 10.8 °C 1014.1 hPa SSW 7.4 km/h 7.4 km/h 70% 0 mm 243.0 W/m2 OVC
14:09 16.5 °C 10.8 °C 1014.1 hPa WSW 13 km/h 13 km/h 69% 0 mm 174.0 W/m2 OVC
14:14 16.5 °C 11 °C 1014.1 hPa SSW 9.7 km/h 9.7 km/h 70% 0 mm 274.0 W/m2 OVC
14:19 16.6 °C 11.1 °C 1013.8 hPa SSW 7.4 km/h 7.4 km/h 70% 0 mm 193.0 W/m2 OVC
14:24 16.7 °C 11 °C 1013.4 hPa SSW 7.4 km/h 7.4 km/h 69% 0 mm 181.0 W/m2 OVC
14:29 16.8 °C 11.1 °C 1013.4 hPa SSW 18.5 km/h 18.5 km/h 69% 0 mm 246.0 W/m2 OVC
14:34 16.9 °C 11.2 °C 1013.4 hPa SSW 7.4 km/h 7.4 km/h 69% 0 mm 149.0 W/m2 OVC
14:39 16.9 °C 11.2 °C 1013.4 hPa SW 9.3 km/h 9.3 km/h 69% 0 mm 142.0 W/m2 OVC
14:44 16.8 °C 11.3 °C 1013.4 hPa SW 13 km/h 13 km/h 70% 0 mm 155.0 W/m2 OVC
14:50 16.8 °C 11.3 °C 1013.1 hPa South 14.5 km/h 14.5 km/h 70% 0 mm 171.0 W/m2 OVC
14:55 16.9 °C 11.6 °C 1013.1 hPa SSW 4.8 km/h 16.1 km/h 71% 0 mm 165.0 W/m2 CLR
15:00 17.1 °C 11.6 °C 1013.1 hPa SSW 8 km/h 19.3 km/h 70% 0 mm 118.0 W/m2 CLR
15:05 17.2 °C 11.7 °C 1013.1 hPa SSW 5.6 km/h 5.6 km/h 70% 0 mm 130.0 W/m2 CLR
15:10 17.4 °C 11.7 °C 1013.1 hPa SSW 7.4 km/h 7.4 km/h 69% 0 mm 107.0 W/m2 CLR
15:15 17.4 °C 11.7 °C 1013.1 hPa SSW 11.1 km/h 11.1 km/h 69% 0 mm 98.0 W/m2 CLR
15:20 17.3 °C 11.8 °C 1012.8 hPa SSW 8 km/h 14.5 km/h 70% 0 mm 105.0 W/m2 CLR
15:25 17.2 °C 11.7 °C 1013.1 hPa SSW 8 km/h 14.5 km/h 70% 0 mm 97.0 W/m2 CLR
15:30 17.1 °C 11.8 °C 1013.1 hPa SSW 9.3 km/h 9.3 km/h 71% 0 mm 91.0 W/m2 CLR
15:35 17.1 °C 11.8 °C 1012.8 hPa SSW 9.3 km/h 9.3 km/h 71% 0 mm 93.0 W/m2 CLR
15:40 17.1 °C 11.8 °C 1012.8 hPa SSE 19.3 km/h 19.3 km/h 71% 0 mm 111.0 W/m2 CLR
15:45 17.1 °C 11.8 °C 1012.8 hPa SSW 13 km/h 13 km/h 71% 0 mm 90.0 W/m2 CLR
15:50 17.1 °C 11.8 °C 1012.4 hPa South 16.7 km/h 16.7 km/h 71% 0 mm 84.0 W/m2 CLR
15:55 17.1 °C 11.8 °C 1012.8 hPa South 13 km/h 13 km/h 71% 0 mm 76.0 W/m2 CLR
16:00 17 °C 11.7 °C 1012.4 hPa South 8 km/h 8 km/h 71% 0 mm 62.0 W/m2 CLR
16:05 16.9 °C 11.8 °C 1012.4 hPa SSW 7.4 km/h 7.4 km/h 72% 0 mm 63.0 W/m2 CLR
16:10 16.9 °C 11.8 °C 1012.4 hPa SSE 16.7 km/h 16.7 km/h 72% 0 mm 65.0 W/m2 CLR
16:15 16.9 °C 11.8 °C 1012.4 hPa SW 11.1 km/h 11.1 km/h 72% 0 mm 58.0 W/m2 CLR
16:20 16.8 °C 11.8 °C 1012.4 hPa SSW 11.1 km/h 11.1 km/h 72% 0 mm 56.0 W/m2 CLR
16:25 16.8 °C 11.7 °C 1012.4 hPa South 7.4 km/h 7.4 km/h 72% 0 mm 51.0 W/m2 CLR
16:30 16.7 °C 11.7 °C 1012.1 hPa SSW 5.6 km/h 5.6 km/h 72% 0 mm 47.0 W/m2 CLR
16:35 16.7 °C 11.6 °C 1012.1 hPa SSE 5.6 km/h 5.6 km/h 72% 0 mm 42.0 W/m2 CLR
16:40 16.7 °C 11.8 °C 1012.1 hPa SSW 5.6 km/h 5.6 km/h 73% 0 mm 37.0 W/m2 CLR
16:45 16.7 °C 11.8 °C 1012.1 hPa SSW 9.3 km/h 9.3 km/h 73% 0 mm 35.0 W/m2 CLR
16:50 16.6 °C 11.7 °C 1012.1 hPa SW 5.6 km/h 5.6 km/h 73% 0 mm 33.0 W/m2 CLR
16:55 16.6 °C 11.7 °C 1012.1 hPa South 16.1 km/h 16.1 km/h 73% 0 mm 32.0 W/m2 CLR
17:00 16.6 °C 11.7 °C 1012.1 hPa SSE 8 km/h 8 km/h 73% 0 mm 28.0 W/m2 CLR
17:05 16.6 °C 11.7 °C 1012.1 hPa SSE 5.6 km/h 5.6 km/h 73% 0 mm 25.0 W/m2 CLR
17:10 16.4 °C 11.7 °C 1012.1 hPa SSW 5.6 km/h 5.6 km/h 74% 0 mm 19.0 W/m2 CLR
17:15 16.3 °C 11.4 °C 1012.1 hPa SSW 3.2 km/h 6.4 km/h 73% 0 mm 16.0 W/m2 CLR
17:20 16.1 °C 11.4 °C 1012.1 hPa SSW 3.7 km/h 3.7 km/h 74% 0 mm 12.0 W/m2 CLR
17:25 15.9 °C 11.3 °C 1011.7 hPa SSW 3.7 km/h 3.7 km/h 74% 0 mm 9.0 W/m2 CLR
17:30 15.7 °C 11.2 °C 1012.1 hPa SSW 1.6 km/h 4.8 km/h 75% 0 mm 7.0 W/m2 CLR
17:35 15.3 °C 10.9 °C 1011.7 hPa SSW 1.6 km/h 3.2 km/h 75% 0 mm 0.0 W/m2 CLR
17:40 14.9 °C 10.9 °C 1012.1 hPa SSW 3.7 km/h 3.7 km/h 77% 0 mm 0.0 W/m2 CLR
17:45 14.7 °C 10.9 °C 1012.1 hPa Calm     78% 0 mm 0.0 W/m2 CLR
17:50 14.4 °C 10.6 °C 1012.1 hPa Calm     78% 0 mm 0.0 W/m2 CLR
17:55 14.1 °C 10.5 °C 1012.1 hPa Calm     79% 0 mm 0.0 W/m2 CLR
18:00 13.9 °C 10.6 °C 1012.1 hPa Calm     80% 0 mm 0.0 W/m2 CLR
18:05 13.7 °C 10.5 °C 1012.1 hPa SSW 1.6 km/h   81% 0 mm 0.0 W/m2 CLR
18:10 13.6 °C 10.3 °C 1012.1 hPa Calm     81% 0 mm 0.0 W/m2 CLR
18:15 13.4 °C 10.4 °C 1012.1 hPa Calm     82% 0 mm 0.0 W/m2 CLR
18:20 13.3 °C 10.5 °C 1012.1 hPa SSW 5.6 km/h 5.6 km/h 83% 0 mm 0.0 W/m2 CLR
18:25 13.4 °C 10.8 °C 1012.1 hPa SSW 3.2 km/h 4.8 km/h 84% 0 mm 0.0 W/m2 CLR
18:30 13.7 °C 10.8 °C 1012.1 hPa SSW 5.6 km/h 5.6 km/h 83% 0 mm 0.0 W/m2 CLR
18:35 13.9 °C 10.9 °C 1012.1 hPa SSW 5.6 km/h 5.6 km/h 82% 0 mm 0.0 W/m2 CLR
18:40 14.1 °C 11.1 °C 1012.1 hPa SSE 5.6 km/h 5.6 km/h 82% 0 mm 0.0 W/m2 CLR
18:45 14.1 °C 10.9 °C 1012.1 hPa SSW 5.6 km/h 5.6 km/h 81% 0 mm 0.0 W/m2 CLR
18:50 14.1 °C 10.8 °C 1012.1 hPa SSW 3.7 km/h 3.7 km/h 81% 0 mm 0.0 W/m2 CLR
18:55 14.1 °C 10.8 °C 1012.1 hPa South 1.6 km/h 4.8 km/h 81% 0 mm 0.0 W/m2 CLR
19:00 14 °C 11 °C 1012.1 hPa SSW 5.6 km/h 5.6 km/h 82% 0 mm 0.0 W/m2 CLR
19:05 14.1 °C 10.8 °C 1012.1 hPa South 3.2 km/h 6.4 km/h 81% 0 mm 0.0 W/m2 CLR
19:10 14 °C 10.8 °C 1012.1 hPa South 4.8 km/h 4.8 km/h 81% 0 mm 0.0 W/m2 CLR
19:15 14 °C 10.8 °C 1012.1 hPa South 1.6 km/h 4.8 km/h 81% 0 mm 0.0 W/m2 CLR
19:20 13.8 °C 10.8 °C 1011.7 hPa South 1.6 km/h 4.8 km/h 82% 0 mm 0.0 W/m2 CLR
19:25 13.8 °C 10.8 °C 1012.1 hPa South 3.2 km/h 4.8 km/h 82% 0 mm 0.0 W/m2 CLR
19:30 13.7 °C 10.7 °C 1012.1 hPa South 1.9 km/h 2.6 km/h 82% 0 mm 0.0 W/m2 CLR
19:35 13.6 °C 10.6 °C 1012.1 hPa South 3.7 km/h 3.7 km/h 82% 0 mm 0.0 W/m2 CLR
19:40 13.5 °C 10.5 °C 1011.7 hPa Calm   3.2 km/h 82% 0 mm 0.0 W/m2 CLR
19:45 13.3 °C 10.3 °C 1012.1 hPa Calm     82% 0 mm 0.0 W/m2 CLR
19:50 13.1 °C 10.1 °C 1012.1 hPa Calm     82% 0 mm 0.0 W/m2 CLR
19:55 12.8 °C 10 °C 1012.1 hPa Calm     83% 0 mm 0.0 W/m2 CLR
20:00 12.6 °C 10.1 °C 1012.1 hPa SSW 3.7 km/h 3.7 km/h 85% 0 mm 0.0 W/m2 CLR
20:05 12.6 °C 10.3 °C 1012.1 hPa SSW 1.9 km/h 1.9 km/h 86% 0 mm 0.0 W/m2 CLR
20:10 12.6 °C 10.2 °C 1012.1 hPa SSW 3.7 km/h 3.7 km/h 85% 0 mm 0.0 W/m2 CLR
20:15 12.5 °C 10.1 °C 1011.7 hPa SSW 1.9 km/h 1.9 km/h 85% 0 mm 0.0 W/m2 CLR
20:20 12.4 °C 10 °C 1011.7 hPa SSW 3.7 km/h 3.7 km/h 85% 0 mm 0.0 W/m2 CLR
20:25 12.3 °C 9.9 °C 1012.1 hPa SSW 1.6 km/h 3.2 km/h 85% 0 mm 0.0 W/m2 CLR
20:30 12.2 °C 9.9 °C 1012.1 hPa SSW 3.7 km/h 3.7 km/h 86% 0 mm 0.0 W/m2 CLR
20:35 12.3 °C 10.2 °C 1011.7 hPa SSW 3.7 km/h 3.7 km/h 87% 0 mm 0.0 W/m2 CLR
20:40 12.6 °C 10.3 °C 1012.1 hPa SSW 5.6 km/h 5.6 km/h 86% 0 mm 0.0 W/m2 CLR
20:45 12.6 °C 10.1 °C 1012.1 hPa SSW 3.7 km/h 3.7 km/h 85% 0 mm 0.0 W/m2 CLR
20:50 12.4 °C 9.9 °C 1012.1 hPa SSW 3.7 km/h 3.7 km/h 85% 0 mm 0.0 W/m2 CLR
20:55 12.2 °C 9.9 °C 1011.7 hPa SSW 3.7 km/h 3.7 km/h 86% 0 mm 0.0 W/m2 CLR
21:00 12.2 °C 9.9 °C 1011.7 hPa SSW 3.7 km/h 3.7 km/h 86% 0 mm 0.0 W/m2 CLR
21:05 12.1 °C 9.8 °C 1011.7 hPa SSW 3.7 km/h 3.7 km/h 86% 0 mm 0.0 W/m2 CLR
21:10 12 °C 9.7 °C 1011.7 hPa SSW 3.7 km/h 3.7 km/h 86% 0 mm 0.0 W/m2 CLR
21:15 11.8 °C 9.7 °C 1011.7 hPa SSW 3.7 km/h 3.7 km/h 87% 0 mm 0.0 W/m2 CLR
21:20 11.6 °C 9.7 °C 1011.7 hPa SSW 3.7 km/h 3.7 km/h 88% 0 mm 0.0 W/m2 CLR
21:25 11.6 °C 9.6 °C 1011.7 hPa Calm     88% 0 mm 0.0 W/m2 CLR
21:30 11.5 °C 9.4 °C 1011.7 hPa Calm     87% 0 mm 0.0 W/m2 CLR
21:35 11.4 °C 9.4 °C 1011.7 hPa Calm     88% 0 mm 0.0 W/m2 CLR
21:40 11.4 °C 9.4 °C 1011.7 hPa Calm     88% 0 mm 0.0 W/m2 CLR
21:45 11.3 °C 9.4 °C 1011.7 hPa Calm     88% 0 mm 0.0 W/m2 CLR
21:50 11.3 °C 9.4 °C 1011.7 hPa Calm     88% 0 mm 0.0 W/m2 CLR
21:55 11.3 °C 9.6 °C 1011.7 hPa Calm     89% 0 mm 0.0 W/m2 CLR
22:00 11.2 °C 9.3 °C 1011.7 hPa Calm     88% 0 mm 0.0 W/m2 CLR
22:05 11.1 °C 9.3 °C 1011.7 hPa Calm     89% 0 mm 0.0 W/m2 CLR
22:10 10.9 °C 9.2 °C 1011.7 hPa Calm     89% 0 mm 0.0 W/m2 CLR
22:15 10.9 °C 9.3 °C 1011.4 hPa Calm     90% 0 mm 0.0 W/m2 CLR
22:20 11 °C 9.6 °C 1011.7 hPa Calm     91% 0 mm 0.0 W/m2 CLR
22:25 11.1 °C 9.6 °C 1011.4 hPa Calm     90% 0 mm 0.0 W/m2 CLR
22:30 11.1 °C 9.6 °C 1011.4 hPa Calm     90% 0 mm 0.0 W/m2 CLR
22:35 11.1 °C 9.6 °C 1011.7 hPa Calm     90% 0 mm 0.0 W/m2 CLR
22:40 11 °C 9.1 °C 1011.7 hPa Calm     88% 0 mm 0.0 W/m2 CLR
22:45 10.7 °C 8.9 °C 1011.7 hPa Calm     89% 0 mm 0.0 W/m2 CLR
22:50 10.4 °C 8.7 °C 1011.7 hPa Calm     89% 0 mm 0.0 W/m2 CLR
22:55 10.2 °C 8.7 °C 1011.7 hPa Calm     90% 0 mm 0.0 W/m2 CLR
23:00 10.1 °C 8.5 °C 1011.7 hPa Calm     90% 0 mm 0.0 W/m2 CLR
23:05 9.9 °C 8.3 °C 1011.7 hPa Calm     90% 0 mm 0.0 W/m2 CLR
23:10 9.7 °C 8.3 °C 1011.4 hPa Calm     91% 0 mm 0.0 W/m2 CLR
23:15 9.7 °C 8.3 °C 1011.4 hPa Calm     91% 0 mm 0.0 W/m2 CLR
23:20 9.6 °C 8.3 °C 1011.4 hPa Calm     92% 0 mm 0.0 W/m2 CLR
23:25 9.4 °C 8.2 °C 1011.4 hPa Calm     92% 0 mm 0.0 W/m2 CLR
23:30 9.3 °C 8.1 °C 1011.4 hPa SSW 1.6 km/h 1.6 km/h 92% 0 mm 0.0 W/m2 CLR
23:35 9.3 °C 8.3 °C 1011.7 hPa SSW 1.9 km/h   93% 0 mm 0.0 W/m2 CLR
23:40 9.3 °C 8.2 °C 1011.7 hPa Calm     93% 0 mm 0.0 W/m2 CLR
23:45 9.3 °C 8.4 °C 1011.4 hPa SSW 3.7 km/h 3.7 km/h 94% 0 mm 0.0 W/m2 CLR
23:50 9.4 °C 8.4 °C 1011.4 hPa South 3.7 km/h 3.7 km/h 94% 0 mm 0.0 W/m2 CLR
Fulton, MO, USA
Compliments of Weather Underground - 2.25 mb